sensor_id;sensor_type;location;lat;lon;timestamp;P1;durP1;ratioP1;P2;durP2;ratioP2
55603;SDS011;41468;48.838;9.330;2022-08-03T00:00:42;2.13;;;2.03;;
55603;SDS011;41468;48.838;9.330;2022-08-03T00:03:11;2.33;;;2.22;;
55603;SDS011;41468;48.838;9.330;2022-08-03T00:05:41;2.72;;;2.53;;
55603;SDS011;41468;48.838;9.330;2022-08-03T00:08:30;2.35;;;2.03;;
55603;SDS011;41468;48.838;9.330;2022-08-03T00:11:08;2.63;;;2.42;;
55603;SDS011;41468;48.838;9.330;2022-08-03T00:13:38;2.55;;;2.35;;
55603;SDS011;41468;48.838;9.330;2022-08-03T00:16:08;2.33;;;2.17;;
55603;SDS011;41468;48.838;9.330;2022-08-03T00:18:38;2.50;;;2.38;;
55603;SDS011;41468;48.838;9.330;2022-08-03T00:21:08;3.17;;;2.38;;
55603;SDS011;41468;48.838;9.330;2022-08-03T00:23:40;2.25;;;2.15;;
55603;SDS011;41468;48.838;9.330;2022-08-03T00:26:20;2.67;;;2.47;;
55603;SDS011;41468;48.838;9.330;2022-08-03T00:28:50;2.50;;;2.30;;
55603;SDS011;41468;48.838;9.330;2022-08-03T00:31:20;2.70;;;2.25;;
55603;SDS011;41468;48.838;9.330;2022-08-03T00:34:09;2.40;;;2.30;;
55603;SDS011;41468;48.838;9.330;2022-08-03T00:36:39;3.33;;;2.08;;
55603;SDS011;41468;48.838;9.330;2022-08-03T00:39:08;2.55;;;2.35;;
55603;SDS011;41468;48.838;9.330;2022-08-03T00:41:41;4.57;;;2.30;;
55603;SDS011;41468;48.838;9.330;2022-08-03T00:44:10;3.40;;;2.10;;
55603;SDS011;41468;48.838;9.330;2022-08-03T00:46:40;2.50;;;2.30;;
55603;SDS011;41468;48.838;9.330;2022-08-03T00:49:10;2.83;;;2.40;;
55603;SDS011;41468;48.838;9.330;2022-08-03T00:51:39;3.03;;;2.28;;
55603;SDS011;41468;48.838;9.330;2022-08-03T00:54:09;2.28;;;2.17;;
55603;SDS011;41468;48.838;9.330;2022-08-03T00:56:41;3.13;;;2.65;;
55603;SDS011;41468;48.838;9.330;2022-08-03T00:59:25;2.53;;;2.42;;
55603;SDS011;41468;48.838;9.330;2022-08-03T01:01:56;2.70;;;2.50;;
55603;SDS011;41468;48.838;9.330;2022-08-03T01:04:26;2.70;;;2.50;;
55603;SDS011;41468;48.838;9.330;2022-08-03T01:06:58;2.40;;;2.20;;
55603;SDS011;41468;48.838;9.330;2022-08-03T01:09:37;3.58;;;2.20;;
55603;SDS011;41468;48.838;9.330;2022-08-03T01:12:19;3.72;;;2.80;;
55603;SDS011;41468;48.838;9.330;2022-08-03T01:14:54;2.40;;;2.30;;
55603;SDS011;41468;48.838;9.330;2022-08-03T01:17:30;2.42;;;2.30;;
55603;SDS011;41468;48.838;9.330;2022-08-03T01:20:07;2.88;;;2.30;;
55603;SDS011;41468;48.838;9.330;2022-08-03T01:22:51;2.45;;;2.35;;
55603;SDS011;41468;48.838;9.330;2022-08-03T01:25:38;3.30;;;2.40;;
55603;SDS011;41468;48.838;9.330;2022-08-03T01:28:24;4.50;;;2.50;;
55603;SDS011;41468;48.838;9.330;2022-08-03T01:31:10;2.50;;;2.30;;
55603;SDS011;41468;48.838;9.330;2022-08-03T01:33:42;9.52;;;2.60;;
55603;SDS011;41468;48.838;9.330;2022-08-03T01:36:16;2.30;;;2.20;;
55603;SDS011;41468;48.838;9.330;2022-08-03T01:38:51;2.83;;;2.63;;
55603;SDS011;41468;48.838;9.330;2022-08-03T01:41:25;3.20;;;2.08;;
55603;SDS011;41468;48.838;9.330;2022-08-03T01:44:00;4.45;;;2.25;;
55603;SDS011;41468;48.838;9.330;2022-08-03T01:46:54;2.78;;;2.60;;
55603;SDS011;41468;48.838;9.330;2022-08-03T01:49:27;2.47;;;2.28;;
55603;SDS011;41468;48.838;9.330;2022-08-03T01:52:00;3.60;;;2.13;;
55603;SDS011;41468;48.838;9.330;2022-08-03T01:54:34;2.58;;;2.38;;
55603;SDS011;41468;48.838;9.330;2022-08-03T01:57:05;3.78;;;2.67;;
55603;SDS011;41468;48.838;9.330;2022-08-03T01:59:37;2.20;;;2.00;;
55603;SDS011;41468;48.838;9.330;2022-08-03T02:02:11;2.47;;;2.15;;
55603;SDS011;41468;48.838;9.330;2022-08-03T02:04:59;2.75;;;2.47;;
55603;SDS011;41468;48.838;9.330;2022-08-03T02:07:36;2.75;;;2.30;;
55603;SDS011;41468;48.838;9.330;2022-08-03T02:10:10;3.03;;;2.47;;
55603;SDS011;41468;48.838;9.330;2022-08-03T02:13:00;2.60;;;2.40;;
55603;SDS011;41468;48.838;9.330;2022-08-03T02:15:34;2.55;;;2.35;;
55603;SDS011;41468;48.838;9.330;2022-08-03T02:18:08;2.63;;;2.40;;
55603;SDS011;41468;48.838;9.330;2022-08-03T02:20:39;2.15;;;2.05;;
55603;SDS011;41468;48.838;9.330;2022-08-03T02:23:11;2.47;;;2.28;;
55603;SDS011;41468;48.838;9.330;2022-08-03T02:25:44;2.20;;;2.10;;
55603;SDS011;41468;48.838;9.330;2022-08-03T02:28:17;2.80;;;2.10;;
55603;SDS011;41468;48.838;9.330;2022-08-03T02:30:50;2.42;;;2.25;;
55603;SDS011;41468;48.838;9.330;2022-08-03T02:33:27;2.78;;;2.42;;
55603;SDS011;41468;48.838;9.330;2022-08-03T02:36:00;2.30;;;2.10;;
55603;SDS011;41468;48.838;9.330;2022-08-03T02:38:32;2.67;;;2.47;;
55603;SDS011;41468;48.838;9.330;2022-08-03T02:41:06;3.00;;;2.20;;
55603;SDS011;41468;48.838;9.330;2022-08-03T02:43:39;3.83;;;2.38;;
55603;SDS011;41468;48.838;9.330;2022-08-03T02:46:32;2.60;;;2.30;;
55603;SDS011;41468;48.838;9.330;2022-08-03T02:49:09;2.53;;;2.30;;
55603;SDS011;41468;48.838;9.330;2022-08-03T02:52:01;3.67;;;2.40;;
55603;SDS011;41468;48.838;9.330;2022-08-03T02:54:38;2.85;;;2.20;;
55603;SDS011;41468;48.838;9.330;2022-08-03T02:57:08;4.45;;;2.30;;
55603;SDS011;41468;48.838;9.330;2022-08-03T02:59:40;2.80;;;2.58;;
55603;SDS011;41468;48.838;9.330;2022-08-03T03:02:11;2.45;;;2.35;;
55603;SDS011;41468;48.838;9.330;2022-08-03T03:04:46;2.90;;;2.70;;
55603;SDS011;41468;48.838;9.330;2022-08-03T03:07:39;2.67;;;2.55;;
55603;SDS011;41468;48.838;9.330;2022-08-03T03:10:18;3.00;;;2.38;;
55603;SDS011;41468;48.838;9.330;2022-08-03T03:12:50;2.72;;;2.63;;
55603;SDS011;41468;48.838;9.330;2022-08-03T03:15:24;2.60;;;2.40;;
55603;SDS011;41468;48.838;9.330;2022-08-03T03:17:56;4.13;;;2.63;;
55603;SDS011;41468;48.838;9.330;2022-08-03T03:20:31;2.50;;;2.40;;
55603;SDS011;41468;48.838;9.330;2022-08-03T03:23:02;3.53;;;2.38;;
55603;SDS011;41468;48.838;9.330;2022-08-03T03:25:34;2.28;;;2.17;;
55603;SDS011;41468;48.838;9.330;2022-08-03T03:28:04;2.90;;;2.70;;
55603;SDS011;41468;48.838;9.330;2022-08-03T03:30:34;2.53;;;2.42;;
55603;SDS011;41468;48.838;9.330;2022-08-03T03:33:04;4.70;;;2.60;;
55603;SDS011;41468;48.838;9.330;2022-08-03T03:35:36;2.85;;;2.65;;
55603;SDS011;41468;48.838;9.330;2022-08-03T03:38:08;2.78;;;2.58;;
55603;SDS011;41468;48.838;9.330;2022-08-03T03:40:38;2.87;;;2.67;;
55603;SDS011;41468;48.838;9.330;2022-08-03T03:43:08;4.33;;;2.50;;
55603;SDS011;41468;48.838;9.330;2022-08-03T03:45:39;2.93;;;2.63;;
55603;SDS011;41468;48.838;9.330;2022-08-03T03:48:10;4.22;;;2.85;;
55603;SDS011;41468;48.838;9.330;2022-08-03T03:50:42;2.90;;;2.70;;
55603;SDS011;41468;48.838;9.330;2022-08-03T03:53:13;2.70;;;2.50;;
55603;SDS011;41468;48.838;9.330;2022-08-03T03:55:43;13.13;;;9.38;;
55603;SDS011;41468;48.838;9.330;2022-08-03T03:58:28;17.48;;;13.10;;
55603;SDS011;41468;48.838;9.330;2022-08-03T04:00:59;7.43;;;6.82;;
55603;SDS011;41468;48.838;9.330;2022-08-03T04:03:29;20.10;;;14.27;;
55603;SDS011;41468;48.838;9.330;2022-08-03T04:06:01;25.40;;;22.70;;
55603;SDS011;41468;48.838;9.330;2022-08-03T04:08:43;6.70;;;6.03;;
55603;SDS011;41468;48.838;9.330;2022-08-03T04:11:26;7.18;;;5.57;;
55603;SDS011;41468;48.838;9.330;2022-08-03T04:14:02;17.77;;;14.57;;
55603;SDS011;41468;48.838;9.330;2022-08-03T04:16:36;9.60;;;8.65;;
55603;SDS011;41468;48.838;9.330;2022-08-03T04:19:10;2.53;;;2.42;;
55603;SDS011;41468;48.838;9.330;2022-08-03T04:21:51;2.80;;;2.60;;
55603;SDS011;41468;48.838;9.330;2022-08-03T04:24:26;2.83;;;2.67;;
55603;SDS011;41468;48.838;9.330;2022-08-03T04:27:01;2.97;;;2.30;;
55603;SDS011;41468;48.838;9.330;2022-08-03T04:29:36;2.60;;;2.40;;
55603;SDS011;41468;48.838;9.330;2022-08-03T04:32:14;3.08;;;2.70;;
55603;SDS011;41468;48.838;9.330;2022-08-03T04:34:45;2.90;;;2.70;;
55603;SDS011;41468;48.838;9.330;2022-08-03T04:37:21;3.08;;;2.88;;
55603;SDS011;41468;48.838;9.330;2022-08-03T04:39:54;3.40;;;3.10;;
55603;SDS011;41468;48.838;9.330;2022-08-03T04:42:27;2.92;;;2.72;;
55603;SDS011;41468;48.838;9.330;2022-08-03T04:45:00;2.60;;;2.40;;
55603;SDS011;41468;48.838;9.330;2022-08-03T04:47:32;4.03;;;2.80;;
55603;SDS011;41468;48.838;9.330;2022-08-03T04:50:02;2.83;;;2.63;;
55603;SDS011;41468;48.838;9.330;2022-08-03T04:52:40;3.13;;;2.92;;
55603;SDS011;41468;48.838;9.330;2022-08-03T04:55:10;2.90;;;2.75;;
55603;SDS011;41468;48.838;9.330;2022-08-03T04:57:40;3.93;;;2.87;;
55603;SDS011;41468;48.838;9.330;2022-08-03T05:00:10;3.33;;;3.00;;
55603;SDS011;41468;48.838;9.330;2022-08-03T05:02:41;2.90;;;2.70;;
55603;SDS011;41468;48.838;9.330;2022-08-03T05:05:11;2.77;;;2.50;;
55603;SDS011;41468;48.838;9.330;2022-08-03T05:07:43;2.95;;;2.63;;
55603;SDS011;41468;48.838;9.330;2022-08-03T05:10:15;2.75;;;2.55;;
55603;SDS011;41468;48.838;9.330;2022-08-03T05:12:45;4.97;;;2.70;;
55603;SDS011;41468;48.838;9.330;2022-08-03T05:15:17;4.65;;;2.67;;
55603;SDS011;41468;48.838;9.330;2022-08-03T05:17:46;5.77;;;3.03;;
55603;SDS011;41468;48.838;9.330;2022-08-03T05:20:16;3.10;;;2.90;;
55603;SDS011;41468;48.838;9.330;2022-08-03T05:22:49;2.70;;;2.60;;
55603;SDS011;41468;48.838;9.330;2022-08-03T05:25:18;3.83;;;2.93;;
55603;SDS011;41468;48.838;9.330;2022-08-03T05:27:52;5.47;;;3.13;;
55603;SDS011;41468;48.838;9.330;2022-08-03T05:30:22;3.65;;;2.70;;
55603;SDS011;41468;48.838;9.330;2022-08-03T05:33:00;2.90;;;2.70;;
55603;SDS011;41468;48.838;9.330;2022-08-03T05:35:30;2.70;;;2.60;;
55603;SDS011;41468;48.838;9.330;2022-08-03T05:38:24;2.88;;;2.42;;
55603;SDS011;41468;48.838;9.330;2022-08-03T05:41:00;2.85;;;2.65;;
55603;SDS011;41468;48.838;9.330;2022-08-03T05:43:48;3.58;;;3.10;;
55603;SDS011;41468;48.838;9.330;2022-08-03T05:46:18;2.83;;;2.60;;
55603;SDS011;41468;48.838;9.330;2022-08-03T05:48:48;3.10;;;2.50;;
55603;SDS011;41468;48.838;9.330;2022-08-03T05:51:19;2.72;;;2.53;;
55603;SDS011;41468;48.838;9.330;2022-08-03T05:53:51;3.83;;;2.42;;
55603;SDS011;41468;48.838;9.330;2022-08-03T05:56:21;5.35;;;2.63;;
55603;SDS011;41468;48.838;9.330;2022-08-03T05:58:52;4.28;;;2.60;;
55603;SDS011;41468;48.838;9.330;2022-08-03T06:01:21;4.70;;;2.50;;
55603;SDS011;41468;48.838;9.330;2022-08-03T06:03:51;3.65;;;2.80;;
55603;SDS011;41468;48.838;9.330;2022-08-03T06:06:21;3.00;;;2.55;;
55603;SDS011;41468;48.838;9.330;2022-08-03T06:08:59;5.35;;;2.70;;
55603;SDS011;41468;48.838;9.330;2022-08-03T06:11:29;3.10;;;2.50;;
55603;SDS011;41468;48.838;9.330;2022-08-03T06:13:59;3.20;;;2.78;;
55603;SDS011;41468;48.838;9.330;2022-08-03T06:16:29;2.70;;;2.50;;
55603;SDS011;41468;48.838;9.330;2022-08-03T06:18:59;2.67;;;2.47;;
55603;SDS011;41468;48.838;9.330;2022-08-03T06:21:28;2.53;;;2.42;;
55603;SDS011;41468;48.838;9.330;2022-08-03T06:24:01;2.80;;;2.53;;
55603;SDS011;41468;48.838;9.330;2022-08-03T06:26:31;2.40;;;2.30;;
55603;SDS011;41468;48.838;9.330;2022-08-03T06:29:01;2.72;;;2.53;;
55603;SDS011;41468;48.838;9.330;2022-08-03T06:31:33;2.80;;;2.40;;
55603;SDS011;41468;48.838;9.330;2022-08-03T06:34:04;2.42;;;2.13;;
55603;SDS011;41468;48.838;9.330;2022-08-03T06:36:54;7.43;;;2.22;;
55603;SDS011;41468;48.838;9.330;2022-08-03T06:39:30;3.20;;;2.60;;
55603;SDS011;41468;48.838;9.330;2022-08-03T06:42:00;2.55;;;2.35;;
55603;SDS011;41468;48.838;9.330;2022-08-03T06:44:30;4.43;;;2.30;;
55603;SDS011;41468;48.838;9.330;2022-08-03T06:47:00;2.53;;;2.30;;
55603;SDS011;41468;48.838;9.330;2022-08-03T06:49:30;2.55;;;2.35;;
55603;SDS011;41468;48.838;9.330;2022-08-03T06:52:00;2.47;;;2.17;;
55603;SDS011;41468;48.838;9.330;2022-08-03T06:54:37;2.17;;;2.03;;
55603;SDS011;41468;48.838;9.330;2022-08-03T06:57:07;2.20;;;2.10;;
55603;SDS011;41468;48.838;9.330;2022-08-03T06:59:38;3.95;;;2.47;;
55603;SDS011;41468;48.838;9.330;2022-08-03T07:02:28;2.22;;;2.13;;
55603;SDS011;41468;48.838;9.330;2022-08-03T07:04:57;1.90;;;1.80;;
55603;SDS011;41468;48.838;9.330;2022-08-03T07:07:28;2.42;;;2.00;;
55603;SDS011;41468;48.838;9.330;2022-08-03T07:10:01;2.33;;;2.10;;
55603;SDS011;41468;48.838;9.330;2022-08-03T07:12:32;2.03;;;1.83;;
55603;SDS011;41468;48.838;9.330;2022-08-03T07:15:21;2.00;;;1.90;;
55603;SDS011;41468;48.838;9.330;2022-08-03T07:18:11;3.20;;;1.95;;
55603;SDS011;41468;48.838;9.330;2022-08-03T07:20:41;1.80;;;1.70;;
55603;SDS011;41468;48.838;9.330;2022-08-03T07:23:10;2.10;;;2.00;;
55603;SDS011;41468;48.838;9.330;2022-08-03T07:25:47;2.13;;;2.03;;
55603;SDS011;41468;48.838;9.330;2022-08-03T07:28:17;1.90;;;1.80;;
55603;SDS011;41468;48.838;9.330;2022-08-03T07:30:47;2.03;;;1.92;;
55603;SDS011;41468;48.838;9.330;2022-08-03T07:33:16;2.70;;;2.20;;
55603;SDS011;41468;48.838;9.330;2022-08-03T07:35:46;2.10;;;1.90;;
55603;SDS011;41468;48.838;9.330;2022-08-03T07:38:16;1.80;;;1.70;;
55603;SDS011;41468;48.838;9.330;2022-08-03T07:40:49;5.22;;;1.80;;
55603;SDS011;41468;48.838;9.330;2022-08-03T07:43:18;1.70;;;1.60;;
55603;SDS011;41468;48.838;9.330;2022-08-03T07:45:49;3.20;;;1.90;;
55603;SDS011;41468;48.838;9.330;2022-08-03T07:48:19;1.85;;;1.75;;
55603;SDS011;41468;48.838;9.330;2022-08-03T07:50:49;2.30;;;1.85;;
55603;SDS011;41468;48.838;9.330;2022-08-03T07:53:18;1.60;;;1.50;;
55603;SDS011;41468;48.838;9.330;2022-08-03T07:55:51;1.60;;;1.52;;
55603;SDS011;41468;48.838;9.330;2022-08-03T07:58:20;1.70;;;1.60;;
55603;SDS011;41468;48.838;9.330;2022-08-03T08:00:50;1.50;;;1.40;;
55603;SDS011;41468;48.838;9.330;2022-08-03T08:03:20;1.63;;;1.52;;
55603;SDS011;41468;48.838;9.330;2022-08-03T08:05:52;1.80;;;1.70;;
55603;SDS011;41468;48.838;9.330;2022-08-03T08:08:21;2.10;;;2.00;;
55603;SDS011;41468;48.838;9.330;2022-08-03T08:10:54;4.28;;;2.40;;
55603;SDS011;41468;48.838;9.330;2022-08-03T08:13:24;1.67;;;1.58;;
55603;SDS011;41468;48.838;9.330;2022-08-03T08:15:54;1.55;;;1.45;;
55603;SDS011;41468;48.838;9.330;2022-08-03T08:18:24;1.83;;;1.73;;
55603;SDS011;41468;48.838;9.330;2022-08-03T08:20:54;1.73;;;1.63;;
55603;SDS011;41468;48.838;9.330;2022-08-03T08:23:26;1.48;;;1.48;;
55603;SDS011;41468;48.838;9.330;2022-08-03T08:26:11;2.97;;;1.42;;
55603;SDS011;41468;48.838;9.330;2022-08-03T08:28:41;1.77;;;1.67;;
55603;SDS011;41468;48.838;9.330;2022-08-03T08:31:10;1.30;;;1.30;;
55603;SDS011;41468;48.838;9.330;2022-08-03T08:33:40;3.90;;;1.45;;
55603;SDS011;41468;48.838;9.330;2022-08-03T08:36:30;1.50;;;1.40;;
55603;SDS011;41468;48.838;9.330;2022-08-03T08:39:01;1.40;;;1.35;;
55603;SDS011;41468;48.838;9.330;2022-08-03T08:41:33;3.25;;;1.40;;
55603;SDS011;41468;48.838;9.330;2022-08-03T08:44:12;4.97;;;1.27;;
55603;SDS011;41468;48.838;9.330;2022-08-03T08:46:41;1.60;;;1.30;;
55603;SDS011;41468;48.838;9.330;2022-08-03T08:49:12;1.63;;;1.52;;
55603;SDS011;41468;48.838;9.330;2022-08-03T08:51:46;1.38;;;1.20;;
55603;SDS011;41468;48.838;9.330;2022-08-03T08:54:26;1.60;;;1.50;;
55603;SDS011;41468;48.838;9.330;2022-08-03T08:57:01;1.80;;;1.30;;
55603;SDS011;41468;48.838;9.330;2022-08-03T08:59:51;1.42;;;1.40;;
55603;SDS011;41468;48.838;9.330;2022-08-03T09:02:22;1.25;;;1.25;;
55603;SDS011;41468;48.838;9.330;2022-08-03T09:04:53;3.35;;;1.30;;
55603;SDS011;41468;48.838;9.330;2022-08-03T09:07:23;1.40;;;1.30;;
55603;SDS011;41468;48.838;9.330;2022-08-03T09:09:53;1.70;;;1.30;;
55603;SDS011;41468;48.838;9.330;2022-08-03T09:12:41;1.10;;;1.10;;
55603;SDS011;41468;48.838;9.330;2022-08-03T09:15:15;1.20;;;1.20;;
55603;SDS011;41468;48.838;9.330;2022-08-03T09:17:45;4.95;;;1.65;;
55603;SDS011;41468;48.838;9.330;2022-08-03T09:20:17;1.50;;;1.30;;
55603;SDS011;41468;48.838;9.330;2022-08-03T09:22:58;3.03;;;1.30;;
55603;SDS011;41468;48.838;9.330;2022-08-03T09:25:50;1.50;;;1.15;;
55603;SDS011;41468;48.838;9.330;2022-08-03T09:28:34;1.15;;;1.15;;
55603;SDS011;41468;48.838;9.330;2022-08-03T09:31:28;1.00;;;1.00;;
55603;SDS011;41468;48.838;9.330;2022-08-03T09:34:03;2.22;;;1.30;;
55603;SDS011;41468;48.838;9.330;2022-08-03T09:36:34;1.05;;;1.05;;
55603;SDS011;41468;48.838;9.330;2022-08-03T09:39:06;0.93;;;0.93;;
55603;SDS011;41468;48.838;9.330;2022-08-03T09:41:37;1.20;;;1.15;;
55603;SDS011;41468;48.838;9.330;2022-08-03T09:44:11;1.10;;;1.10;;
55603;SDS011;41468;48.838;9.330;2022-08-03T09:46:51;1.10;;;1.10;;
55603;SDS011;41468;48.838;9.330;2022-08-03T09:49:23;1.30;;;1.30;;
55603;SDS011;41468;48.838;9.330;2022-08-03T09:51:53;1.45;;;1.40;;
55603;SDS011;41468;48.838;9.330;2022-08-03T09:54:43;2.97;;;1.30;;
55603;SDS011;41468;48.838;9.330;2022-08-03T09:57:19;1.35;;;1.30;;
55603;SDS011;41468;48.838;9.330;2022-08-03T09:59:53;1.35;;;1.25;;
55603;SDS011;41468;48.838;9.330;2022-08-03T10:02:35;4.05;;;1.55;;
55603;SDS011;41468;48.838;9.330;2022-08-03T10:05:06;3.00;;;1.40;;
55603;SDS011;41468;48.838;9.330;2022-08-03T10:07:45;2.40;;;1.30;;
55603;SDS011;41468;48.838;9.330;2022-08-03T10:10:17;1.30;;;1.20;;
55603;SDS011;41468;48.838;9.330;2022-08-03T10:12:57;3.15;;;1.30;;
55603;SDS011;41468;48.838;9.330;2022-08-03T10:15:31;1.33;;;1.23;;
55603;SDS011;41468;48.838;9.330;2022-08-03T10:18:21;1.45;;;1.35;;
55603;SDS011;41468;48.838;9.330;2022-08-03T10:20:51;1.40;;;1.40;;
55603;SDS011;41468;48.838;9.330;2022-08-03T10:23:22;1.33;;;1.23;;
55603;SDS011;41468;48.838;9.330;2022-08-03T10:26:01;1.33;;;1.25;;
55603;SDS011;41468;48.838;9.330;2022-08-03T10:28:33;1.38;;;1.27;;
55603;SDS011;41468;48.838;9.330;2022-08-03T10:31:13;1.60;;;1.50;;
55603;SDS011;41468;48.838;9.330;2022-08-03T10:33:46;1.42;;;1.33;;
55603;SDS011;41468;48.838;9.330;2022-08-03T10:36:20;1.13;;;1.08;;
55603;SDS011;41468;48.838;9.330;2022-08-03T10:38:53;2.45;;;1.25;;
55603;SDS011;41468;48.838;9.330;2022-08-03T10:41:24;1.45;;;1.35;;
55603;SDS011;41468;48.838;9.330;2022-08-03T10:44:02;1.13;;;1.13;;
55603;SDS011;41468;48.838;9.330;2022-08-03T10:46:37;3.13;;;1.30;;
55603;SDS011;41468;48.838;9.330;2022-08-03T10:49:11;1.58;;;1.20;;
55603;SDS011;41468;48.838;9.330;2022-08-03T10:52:00;1.20;;;1.20;;
55603;SDS011;41468;48.838;9.330;2022-08-03T10:54:51;1.65;;;1.55;;
55603;SDS011;41468;48.838;9.330;2022-08-03T10:57:49;1.00;;;1.00;;
55603;SDS011;41468;48.838;9.330;2022-08-03T11:00:24;3.65;;;1.27;;
55603;SDS011;41468;48.838;9.330;2022-08-03T11:03:08;1.77;;;1.42;;
55603;SDS011;41468;48.838;9.330;2022-08-03T11:05:40;3.00;;;1.30;;
55603;SDS011;41468;48.838;9.330;2022-08-03T11:08:21;1.45;;;1.45;;
55603;SDS011;41468;48.838;9.330;2022-08-03T11:10:57;1.30;;;1.30;;
55603;SDS011;41468;48.838;9.330;2022-08-03T11:13:29;2.97;;;1.50;;
55603;SDS011;41468;48.838;9.330;2022-08-03T11:16:00;1.45;;;1.25;;
55603;SDS011;41468;48.838;9.330;2022-08-03T11:18:46;1.30;;;1.30;;
55603;SDS011;41468;48.838;9.330;2022-08-03T11:27:23;1.38;;;1.25;;
55603;SDS011;41468;48.838;9.330;2022-08-03T11:29:54;1.75;;;1.65;;
55603;SDS011;41468;48.838;9.330;2022-08-03T11:35:22;1.73;;;1.48;;
55603;SDS011;41468;48.838;9.330;2022-08-03T11:38:07;1.40;;;1.40;;
55603;SDS011;41468;48.838;9.330;2022-08-03T11:40:39;3.30;;;1.30;;
55603;SDS011;41468;48.838;9.330;2022-08-03T11:46:11;1.63;;;1.52;;
55603;SDS011;41468;48.838;9.330;2022-08-03T11:48:54;1.60;;;1.50;;
55603;SDS011;41468;48.838;9.330;2022-08-03T11:51:39;1.50;;;1.40;;
55603;SDS011;41468;48.838;9.330;2022-08-03T11:54:08;1.38;;;1.38;;
55603;SDS011;41468;48.838;9.330;2022-08-03T11:56:45;1.77;;;1.45;;
55603;SDS011;41468;48.838;9.330;2022-08-03T11:59:15;1.30;;;1.30;;
55603;SDS011;41468;48.838;9.330;2022-08-03T12:01:47;1.98;;;1.40;;
55603;SDS011;41468;48.838;9.330;2022-08-03T12:04:17;2.67;;;1.33;;
55603;SDS011;41468;48.838;9.330;2022-08-03T12:07:00;2.05;;;1.58;;
55603;SDS011;41468;48.838;9.330;2022-08-03T12:09:29;1.50;;;1.40;;
55603;SDS011;41468;48.838;9.330;2022-08-03T12:12:01;1.60;;;1.50;;
55603;SDS011;41468;48.838;9.330;2022-08-03T12:14:31;1.85;;;1.75;;
55603;SDS011;41468;48.838;9.330;2022-08-03T12:17:17;1.60;;;1.50;;
55603;SDS011;41468;48.838;9.330;2022-08-03T12:19:47;1.70;;;1.50;;
55603;SDS011;41468;48.838;9.330;2022-08-03T12:22:32;1.73;;;1.30;;
55603;SDS011;41468;48.838;9.330;2022-08-03T12:25:02;2.35;;;1.30;;
55603;SDS011;41468;48.838;9.330;2022-08-03T12:27:33;1.60;;;1.25;;
55603;SDS011;41468;48.838;9.330;2022-08-03T12:30:04;1.23;;;1.23;;
55603;SDS011;41468;48.838;9.330;2022-08-03T12:32:34;1.40;;;1.40;;
55603;SDS011;41468;48.838;9.330;2022-08-03T12:35:05;1.45;;;1.27;;
55603;SDS011;41468;48.838;9.330;2022-08-03T12:37:38;3.05;;;1.33;;
55603;SDS011;41468;48.838;9.330;2022-08-03T12:40:08;1.48;;;1.40;;
55603;SDS011;41468;48.838;9.330;2022-08-03T12:42:47;2.85;;;1.45;;
55603;SDS011;41468;48.838;9.330;2022-08-03T12:45:17;1.35;;;1.35;;
55603;SDS011;41468;48.838;9.330;2022-08-03T12:47:50;1.35;;;1.35;;
55603;SDS011;41468;48.838;9.330;2022-08-03T12:50:25;2.60;;;1.27;;
55603;SDS011;41468;48.838;9.330;2022-08-03T12:53:00;3.13;;;1.50;;
55603;SDS011;41468;48.838;9.330;2022-08-03T12:55:34;4.07;;;1.58;;
55603;SDS011;41468;48.838;9.330;2022-08-03T12:58:28;1.60;;;1.50;;
55603;SDS011;41468;48.838;9.330;2022-08-03T13:01:01;1.42;;;1.33;;
55603;SDS011;41468;48.838;9.330;2022-08-03T13:03:39;1.08;;;1.08;;
55603;SDS011;41468;48.838;9.330;2022-08-03T13:06:11;1.20;;;1.10;;
55603;SDS011;41468;48.838;9.330;2022-08-03T13:08:44;1.45;;;1.35;;
55603;SDS011;41468;48.838;9.330;2022-08-03T13:11:18;3.53;;;1.40;;
55603;SDS011;41468;48.838;9.330;2022-08-03T13:14:09;1.90;;;1.25;;
55603;SDS011;41468;48.838;9.330;2022-08-03T13:16:45;1.45;;;1.40;;
55603;SDS011;41468;48.838;9.330;2022-08-03T13:19:15;1.63;;;1.52;;
55603;SDS011;41468;48.838;9.330;2022-08-03T13:21:45;2.50;;;1.48;;
55603;SDS011;41468;48.838;9.330;2022-08-03T13:24:32;1.63;;;1.52;;
55603;SDS011;41468;48.838;9.330;2022-08-03T13:27:02;1.38;;;1.38;;
55603;SDS011;41468;48.838;9.330;2022-08-03T13:29:52;1.40;;;1.30;;
55603;SDS011;41468;48.838;9.330;2022-08-03T13:32:22;1.80;;;1.70;;
55603;SDS011;41468;48.838;9.330;2022-08-03T13:34:52;1.23;;;1.23;;
55603;SDS011;41468;48.838;9.330;2022-08-03T13:37:22;1.33;;;1.23;;
55603;SDS011;41468;48.838;9.330;2022-08-03T13:39:55;2.05;;;1.38;;
55603;SDS011;41468;48.838;9.330;2022-08-03T13:42:28;1.50;;;1.40;;
55603;SDS011;41468;48.838;9.330;2022-08-03T13:44:59;1.58;;;1.40;;
55603;SDS011;41468;48.838;9.330;2022-08-03T13:47:30;1.25;;;1.25;;
55603;SDS011;41468;48.838;9.330;2022-08-03T13:50:00;1.30;;;1.20;;
55603;SDS011;41468;48.838;9.330;2022-08-03T13:52:30;1.45;;;1.35;;
55603;SDS011;41468;48.838;9.330;2022-08-03T13:55:04;1.17;;;1.10;;
55603;SDS011;41468;48.838;9.330;2022-08-03T13:57:35;1.50;;;1.40;;
55603;SDS011;41468;48.838;9.330;2022-08-03T14:00:25;2.58;;;1.48;;
55603;SDS011;41468;48.838;9.330;2022-08-03T14:02:58;1.35;;;1.25;;
55603;SDS011;41468;48.838;9.330;2022-08-03T14:05:39;2.00;;;1.90;;
55603;SDS011;41468;48.838;9.330;2022-08-03T14:08:09;1.52;;;1.52;;
55603;SDS011;41468;48.838;9.330;2022-08-03T14:10:42;1.23;;;1.23;;
55603;SDS011;41468;48.838;9.330;2022-08-03T14:13:13;2.38;;;1.30;;
55603;SDS011;41468;48.838;9.330;2022-08-03T14:15:43;1.50;;;1.45;;
55603;SDS011;41468;48.838;9.330;2022-08-03T14:18:16;1.13;;;1.13;;
55603;SDS011;41468;48.838;9.330;2022-08-03T14:20:59;1.58;;;1.10;;
55603;SDS011;41468;48.838;9.330;2022-08-03T14:23:32;2.67;;;1.30;;
55603;SDS011;41468;48.838;9.330;2022-08-03T14:26:06;1.50;;;1.40;;
55603;SDS011;41468;48.838;9.330;2022-08-03T14:28:37;1.38;;;1.27;;
55603;SDS011;41468;48.838;9.330;2022-08-03T14:31:07;1.17;;;1.10;;
55603;SDS011;41468;48.838;9.330;2022-08-03T14:33:56;1.10;;;1.10;;
55603;SDS011;41468;48.838;9.330;2022-08-03T14:36:26;1.40;;;1.40;;
55603;SDS011;41468;48.838;9.330;2022-08-03T14:38:56;1.35;;;1.35;;
55603;SDS011;41468;48.838;9.330;2022-08-03T14:41:29;1.38;;;1.38;;
55603;SDS011;41468;48.838;9.330;2022-08-03T14:43:59;1.20;;;1.10;;
55603;SDS011;41468;48.838;9.330;2022-08-03T14:46:29;1.20;;;1.20;;
55603;SDS011;41468;48.838;9.330;2022-08-03T14:48:59;1.33;;;1.17;;
55603;SDS011;41468;48.838;9.330;2022-08-03T14:51:50;1.38;;;1.27;;
55603;SDS011;41468;48.838;9.330;2022-08-03T14:54:20;1.35;;;1.25;;
55603;SDS011;41468;48.838;9.330;2022-08-03T14:56:53;1.45;;;1.35;;
55603;SDS011;41468;48.838;9.330;2022-08-03T14:59:23;1.33;;;1.30;;
55603;SDS011;41468;48.838;9.330;2022-08-03T15:02:13;2.25;;;1.15;;
55603;SDS011;41468;48.838;9.330;2022-08-03T15:04:49;1.27;;;1.27;;
55603;SDS011;41468;48.838;9.330;2022-08-03T15:07:18;1.30;;;1.20;;
55603;SDS011;41468;48.838;9.330;2022-08-03T15:09:48;0.98;;;0.98;;
55603;SDS011;41468;48.838;9.330;2022-08-03T15:12:21;2.33;;;1.10;;
55603;SDS011;41468;48.838;9.330;2022-08-03T15:14:50;1.35;;;1.35;;
55603;SDS011;41468;48.838;9.330;2022-08-03T15:17:20;3.22;;;1.20;;
55603;SDS011;41468;48.838;9.330;2022-08-03T15:19:50;1.45;;;1.35;;
55603;SDS011;41468;48.838;9.330;2022-08-03T15:22:40;2.97;;;1.10;;
55603;SDS011;41468;48.838;9.330;2022-08-03T15:25:10;2.05;;;1.13;;
55603;SDS011;41468;48.838;9.330;2022-08-03T15:28:02;0.90;;;0.90;;
55603;SDS011;41468;48.838;9.330;2022-08-03T15:30:32;1.30;;;1.27;;
55603;SDS011;41468;48.838;9.330;2022-08-03T15:33:03;1.33;;;1.23;;
55603;SDS011;41468;48.838;9.330;2022-08-03T15:35:34;1.77;;;1.48;;
55603;SDS011;41468;48.838;9.330;2022-08-03T15:38:03;1.10;;;1.10;;
55603;SDS011;41468;48.838;9.330;2022-08-03T15:40:35;1.10;;;1.10;;
55603;SDS011;41468;48.838;9.330;2022-08-03T15:43:07;1.80;;;1.27;;